sensor_id;sensor_type;location;lat;lon;timestamp;P1;durP1;ratioP1;P2;durP2;ratioP2
10174;SDS011;18221;38.704;0.152;2024-01-10T00:01:27;1.90;;;1.60;;
10174;SDS011;18221;38.704;0.152;2024-01-10T00:03:55;1.87;;;1.70;;
10174;SDS011;18221;38.704;0.152;2024-01-10T00:06:24;2.03;;;1.80;;
10174;SDS011;18221;38.704;0.152;2024-01-10T00:08:52;5.03;;;2.30;;
10174;SDS011;18221;38.704;0.152;2024-01-10T00:11:20;2.37;;;1.80;;
10174;SDS011;18221;38.704;0.152;2024-01-10T00:13:48;3.33;;;2.23;;
10174;SDS011;18221;38.704;0.152;2024-01-10T00:16:16;2.80;;;1.80;;
10174;SDS011;18221;38.704;0.152;2024-01-10T00:18:44;2.80;;;1.70;;
10174;SDS011;18221;38.704;0.152;2024-01-10T00:21:12;1.97;;;1.80;;
10174;SDS011;18221;38.704;0.152;2024-01-10T00:23:41;1.90;;;1.80;;
10174;SDS011;18221;38.704;0.152;2024-01-10T00:26:09;2.67;;;1.70;;
10174;SDS011;18221;38.704;0.152;2024-01-10T00:28:37;3.07;;;1.83;;
10174;SDS011;18221;38.704;0.152;2024-01-10T00:31:05;3.20;;;2.00;;
10174;SDS011;18221;38.704;0.152;2024-01-10T00:33:33;2.80;;;1.77;;
10174;SDS011;18221;38.704;0.152;2024-01-10T00:36:01;3.10;;;2.00;;
10174;SDS011;18221;38.704;0.152;2024-01-10T00:38:29;3.93;;;2.40;;
10174;SDS011;18221;38.704;0.152;2024-01-10T00:40:58;2.80;;;2.50;;
10174;SDS011;18221;38.704;0.152;2024-01-10T00:43:26;4.53;;;2.70;;
10174;SDS011;18221;38.704;0.152;2024-01-10T00:45:54;3.33;;;2.80;;
10174;SDS011;18221;38.704;0.152;2024-01-10T00:48:22;3.73;;;2.70;;
10174;SDS011;18221;38.704;0.152;2024-01-10T01:03:40;4.47;;;3.23;;
10174;SDS011;18221;38.704;0.152;2024-01-10T01:06:08;4.70;;;3.60;;
10174;SDS011;18221;38.704;0.152;2024-01-10T01:08:37;4.27;;;3.10;;
10174;SDS011;18221;38.704;0.152;2024-01-10T01:11:05;4.97;;;3.70;;
10174;SDS011;18221;38.704;0.152;2024-01-10T01:13:33;5.57;;;3.87;;
10174;SDS011;18221;38.704;0.152;2024-01-10T01:16:01;6.77;;;3.73;;
10174;SDS011;18221;38.704;0.152;2024-01-10T01:18:29;4.50;;;3.70;;
10174;SDS011;18221;38.704;0.152;2024-01-10T01:20:59;7.50;;;3.80;;
10174;SDS011;18221;38.704;0.152;2024-01-10T01:23:27;4.50;;;3.77;;
10174;SDS011;18221;38.704;0.152;2024-01-10T01:25:55;4.30;;;3.73;;
10174;SDS011;18221;38.704;0.152;2024-01-10T01:28:23;4.27;;;3.40;;
10174;SDS011;18221;38.704;0.152;2024-01-10T01:30:51;5.83;;;4.23;;
10174;SDS011;18221;38.704;0.152;2024-01-10T01:33:19;3.80;;;3.50;;
10174;SDS011;18221;38.704;0.152;2024-01-10T01:35:47;4.77;;;3.67;;
10174;SDS011;18221;38.704;0.152;2024-01-10T01:38:16;4.23;;;3.80;;
10174;SDS011;18221;38.704;0.152;2024-01-10T01:40:44;4.20;;;3.80;;
10174;SDS011;18221;38.704;0.152;2024-01-10T01:43:19;4.83;;;3.83;;
10174;SDS011;18221;38.704;0.152;2024-01-10T01:45:50;5.27;;;3.97;;
10174;SDS011;18221;38.704;0.152;2024-01-10T01:48:21;5.67;;;3.83;;
10174;SDS011;18221;38.704;0.152;2024-01-10T01:50:51;5.63;;;3.40;;
10174;SDS011;18221;38.704;0.152;2024-01-10T01:53:24;6.03;;;3.53;;
10174;SDS011;18221;38.704;0.152;2024-01-10T01:55:54;4.93;;;3.63;;
10174;SDS011;18221;38.704;0.152;2024-01-10T01:58:22;5.30;;;3.70;;
10174;SDS011;18221;38.704;0.152;2024-01-10T02:00:51;6.90;;;3.67;;
10174;SDS011;18221;38.704;0.152;2024-01-10T02:03:20;4.33;;;3.63;;
10174;SDS011;18221;38.704;0.152;2024-01-10T02:05:48;4.63;;;3.20;;
10174;SDS011;18221;38.704;0.152;2024-01-10T02:08:17;4.10;;;3.07;;
10174;SDS011;18221;38.704;0.152;2024-01-10T02:10:46;4.13;;;3.20;;
10174;SDS011;18221;38.704;0.152;2024-01-10T02:13:14;4.60;;;3.27;;
10174;SDS011;18221;38.704;0.152;2024-01-10T02:15:43;4.87;;;2.97;;
10174;SDS011;18221;38.704;0.152;2024-01-10T02:18:11;4.13;;;3.03;;
10174;SDS011;18221;38.704;0.152;2024-01-10T02:20:39;4.67;;;2.80;;
10174;SDS011;18221;38.704;0.152;2024-01-10T02:23:11;4.87;;;3.20;;
10174;SDS011;18221;38.704;0.152;2024-01-10T02:25:41;3.83;;;3.07;;
10174;SDS011;18221;38.704;0.152;2024-01-10T02:28:10;3.53;;;3.17;;
10174;SDS011;18221;38.704;0.152;2024-01-10T02:30:38;4.00;;;2.97;;
10174;SDS011;18221;38.704;0.152;2024-01-10T02:33:06;6.60;;;3.63;;
10174;SDS011;18221;38.704;0.152;2024-01-10T02:35:34;3.97;;;3.57;;
10174;SDS011;18221;38.704;0.152;2024-01-10T02:38:04;5.50;;;3.70;;
10174;SDS011;18221;38.704;0.152;2024-01-10T02:40:33;5.10;;;3.83;;
10174;SDS011;18221;38.704;0.152;2024-01-10T02:43:02;4.50;;;3.80;;
10174;SDS011;18221;38.704;0.152;2024-01-10T02:45:32;4.10;;;3.43;;
10174;SDS011;18221;38.704;0.152;2024-01-10T02:48:01;5.67;;;3.93;;
10174;SDS011;18221;38.704;0.152;2024-01-10T02:50:29;6.97;;;3.60;;
10174;SDS011;18221;38.704;0.152;2024-01-10T02:52:57;6.33;;;3.77;;
10174;SDS011;18221;38.704;0.152;2024-01-10T02:55:25;4.53;;;3.60;;
10174;SDS011;18221;38.704;0.152;2024-01-10T02:57:53;4.67;;;3.77;;
10174;SDS011;18221;38.704;0.152;2024-01-10T03:00:22;4.27;;;3.87;;
10174;SDS011;18221;38.704;0.152;2024-01-10T03:02:50;5.40;;;3.63;;
10174;SDS011;18221;38.704;0.152;2024-01-10T03:05:18;5.67;;;3.80;;
10174;SDS011;18221;38.704;0.152;2024-01-10T03:07:46;4.40;;;2.70;;
10174;SDS011;18221;38.704;0.152;2024-01-10T03:10:14;3.27;;;2.90;;
10174;SDS011;18221;38.704;0.152;2024-01-10T03:12:42;4.00;;;2.93;;
10174;SDS011;18221;38.704;0.152;2024-01-10T03:15:10;4.13;;;2.97;;
10174;SDS011;18221;38.704;0.152;2024-01-10T03:17:40;7.03;;;3.07;;
10174;SDS011;18221;38.704;0.152;2024-01-10T03:20:08;4.47;;;3.20;;
10174;SDS011;18221;38.704;0.152;2024-01-10T03:22:37;3.77;;;3.20;;
10174;SDS011;18221;38.704;0.152;2024-01-10T03:25:05;3.37;;;2.70;;
10174;SDS011;18221;38.704;0.152;2024-01-10T03:27:33;3.20;;;2.90;;
10174;SDS011;18221;38.704;0.152;2024-01-10T03:30:01;4.30;;;2.50;;
10174;SDS011;18221;38.704;0.152;2024-01-10T03:32:30;4.90;;;2.63;;
10174;SDS011;18221;38.704;0.152;2024-01-10T03:34:59;3.20;;;2.90;;
10174;SDS011;18221;38.704;0.152;2024-01-10T03:37:28;4.47;;;2.60;;
10174;SDS011;18221;38.704;0.152;2024-01-10T03:39:56;2.73;;;2.40;;
10174;SDS011;18221;38.704;0.152;2024-01-10T03:42:24;3.10;;;2.40;;
10174;SDS011;18221;38.704;0.152;2024-01-10T03:44:52;3.07;;;2.30;;
10174;SDS011;18221;38.704;0.152;2024-01-10T03:47:20;2.50;;;2.30;;
10174;SDS011;18221;38.704;0.152;2024-01-10T03:49:48;2.63;;;2.10;;
10174;SDS011;18221;38.704;0.152;2024-01-10T03:52:17;2.33;;;2.13;;
10174;SDS011;18221;38.704;0.152;2024-01-10T03:54:45;4.83;;;2.20;;
10174;SDS011;18221;38.704;0.152;2024-01-10T03:57:13;2.67;;;2.03;;
10174;SDS011;18221;38.704;0.152;2024-01-10T03:59:41;2.87;;;2.20;;
10174;SDS011;18221;38.704;0.152;2024-01-10T04:02:09;2.80;;;2.10;;
10174;SDS011;18221;38.704;0.152;2024-01-10T04:04:37;2.63;;;2.10;;
10174;SDS011;18221;38.704;0.152;2024-01-10T04:07:05;3.50;;;2.03;;
10174;SDS011;18221;38.704;0.152;2024-01-10T04:09:35;2.10;;;2.00;;
10174;SDS011;18221;38.704;0.152;2024-01-10T04:12:03;2.80;;;2.50;;
10174;SDS011;18221;38.704;0.152;2024-01-10T04:14:33;4.67;;;2.30;;
10174;SDS011;18221;38.704;0.152;2024-01-10T04:17:00;5.77;;;2.53;;
10174;SDS011;18221;38.704;0.152;2024-01-10T04:19:30;3.20;;;2.90;;
10174;SDS011;18221;38.704;0.152;2024-01-10T04:21:58;3.03;;;2.47;;
10174;SDS011;18221;38.704;0.152;2024-01-10T04:24:26;4.07;;;2.63;;
10174;SDS011;18221;38.704;0.152;2024-01-10T04:26:55;3.30;;;2.50;;
10174;SDS011;18221;38.704;0.152;2024-01-10T04:29:23;3.97;;;2.63;;
10174;SDS011;18221;38.704;0.152;2024-01-10T04:31:51;2.50;;;2.30;;
10174;SDS011;18221;38.704;0.152;2024-01-10T04:34:19;5.43;;;2.53;;
10174;SDS011;18221;38.704;0.152;2024-01-10T04:36:48;2.60;;;2.40;;
10174;SDS011;18221;38.704;0.152;2024-01-10T04:39:16;4.73;;;2.90;;
10174;SDS011;18221;38.704;0.152;2024-01-10T04:41:44;3.87;;;3.50;;
10174;SDS011;18221;38.704;0.152;2024-01-10T04:44:14;8.40;;;4.67;;
10174;SDS011;18221;38.704;0.152;2024-01-10T04:46:42;7.97;;;4.93;;
10174;SDS011;18221;38.704;0.152;2024-01-10T04:49:10;6.57;;;5.30;;
10174;SDS011;18221;38.704;0.152;2024-01-10T04:51:38;6.73;;;5.77;;
10174;SDS011;18221;38.704;0.152;2024-01-10T04:54:06;7.73;;;5.67;;
10174;SDS011;18221;38.704;0.152;2024-01-10T04:56:34;7.63;;;4.47;;
10174;SDS011;18221;38.704;0.152;2024-01-10T04:59:02;5.30;;;4.80;;
10174;SDS011;18221;38.704;0.152;2024-01-10T05:01:32;5.17;;;3.73;;
10174;SDS011;18221;38.704;0.152;2024-01-10T05:04:00;6.33;;;4.47;;
10174;SDS011;18221;38.704;0.152;2024-01-10T05:06:28;5.43;;;4.50;;
10174;SDS011;18221;38.704;0.152;2024-01-10T05:08:56;9.87;;;7.07;;
10174;SDS011;18221;38.704;0.152;2024-01-10T05:11:24;10.17;;;7.73;;
10174;SDS011;18221;38.704;0.152;2024-01-10T05:13:52;14.27;;;8.57;;
10174;SDS011;18221;38.704;0.152;2024-01-10T05:16:20;14.03;;;8.63;;
10174;SDS011;18221;38.704;0.152;2024-01-10T05:18:50;12.83;;;8.47;;
10174;SDS011;18221;38.704;0.152;2024-01-10T05:21:17;12.03;;;9.17;;
10174;SDS011;18221;38.704;0.152;2024-01-10T05:23:46;13.63;;;8.73;;
10174;SDS011;18221;38.704;0.152;2024-01-10T05:26:14;13.13;;;9.43;;
10174;SDS011;18221;38.704;0.152;2024-01-10T05:28:42;15.23;;;9.57;;
10174;SDS011;18221;38.704;0.152;2024-01-10T05:31:10;13.70;;;9.70;;
10174;SDS011;18221;38.704;0.152;2024-01-10T05:33:53;15.33;;;10.00;;
10174;SDS011;18221;38.704;0.152;2024-01-10T05:36:21;16.93;;;11.07;;
10174;SDS011;18221;38.704;0.152;2024-01-10T05:38:49;17.23;;;10.60;;
10174;SDS011;18221;38.704;0.152;2024-01-10T05:41:17;16.50;;;10.53;;
10174;SDS011;18221;38.704;0.152;2024-01-10T05:43:45;13.20;;;10.00;;
10174;SDS011;18221;38.704;0.152;2024-01-10T05:46:13;18.13;;;10.30;;
10174;SDS011;18221;38.704;0.152;2024-01-10T05:48:41;15.13;;;9.70;;
10174;SDS011;18221;38.704;0.152;2024-01-10T05:51:13;13.43;;;10.00;;
10174;SDS011;18221;38.704;0.152;2024-01-10T05:53:41;15.47;;;9.80;;
10174;SDS011;18221;38.704;0.152;2024-01-10T05:56:09;12.27;;;9.90;;
10174;SDS011;18221;38.704;0.152;2024-01-10T05:58:37;16.37;;;10.37;;
10174;SDS011;18221;38.704;0.152;2024-01-10T06:01:05;12.67;;;10.17;;
10174;SDS011;18221;38.704;0.152;2024-01-10T06:03:35;15.77;;;10.40;;
10174;SDS011;18221;38.704;0.152;2024-01-10T06:06:04;12.30;;;9.80;;
10174;SDS011;18221;38.704;0.152;2024-01-10T06:08:33;14.43;;;10.30;;
10174;SDS011;18221;38.704;0.152;2024-01-10T06:11:02;15.00;;;10.07;;
10174;SDS011;18221;38.704;0.152;2024-01-10T06:13:33;13.20;;;10.60;;
10174;SDS011;18221;38.704;0.152;2024-01-10T06:16:01;14.73;;;10.97;;
10174;SDS011;18221;38.704;0.152;2024-01-10T06:18:30;15.90;;;11.77;;
10174;SDS011;18221;38.704;0.152;2024-01-10T06:20:58;15.13;;;11.03;;
10174;SDS011;18221;38.704;0.152;2024-01-10T06:23:26;14.60;;;11.53;;
10174;SDS011;18221;38.704;0.152;2024-01-10T06:25:55;18.47;;;11.53;;
10174;SDS011;18221;38.704;0.152;2024-01-10T06:28:23;17.23;;;10.90;;
10174;SDS011;18221;38.704;0.152;2024-01-10T06:30:51;14.97;;;11.47;;
10174;SDS011;18221;38.704;0.152;2024-01-10T06:33:19;16.57;;;12.33;;
10174;SDS011;18221;38.704;0.152;2024-01-10T06:35:47;15.63;;;12.23;;
10174;SDS011;18221;38.704;0.152;2024-01-10T06:38:15;17.83;;;12.50;;
10174;SDS011;18221;38.704;0.152;2024-01-10T06:40:45;18.83;;;12.00;;
10174;SDS011;18221;38.704;0.152;2024-01-10T06:43:15;19.47;;;12.10;;
10174;SDS011;18221;38.704;0.152;2024-01-10T06:45:43;15.37;;;10.97;;
10174;SDS011;18221;38.704;0.152;2024-01-10T06:48:11;14.20;;;11.30;;
10174;SDS011;18221;38.704;0.152;2024-01-10T06:50:40;18.07;;;11.27;;
10174;SDS011;18221;38.704;0.152;2024-01-10T06:53:09;16.03;;;11.23;;
10174;SDS011;18221;38.704;0.152;2024-01-10T06:55:37;14.33;;;10.50;;
10174;SDS011;18221;38.704;0.152;2024-01-10T06:58:05;15.40;;;10.63;;
10174;SDS011;18221;38.704;0.152;2024-01-10T07:00:34;15.00;;;11.00;;
10174;SDS011;18221;38.704;0.152;2024-01-10T07:03:03;17.20;;;11.10;;
10174;SDS011;18221;38.704;0.152;2024-01-10T07:05:31;14.03;;;11.27;;
10174;SDS011;18221;38.704;0.152;2024-01-10T07:07:59;15.07;;;10.77;;
10174;SDS011;18221;38.704;0.152;2024-01-10T07:10:29;14.23;;;10.83;;
10174;SDS011;18221;38.704;0.152;2024-01-10T07:12:57;12.13;;;10.27;;
10174;SDS011;18221;38.704;0.152;2024-01-10T07:15:25;15.13;;;11.40;;
10174;SDS011;18221;38.704;0.152;2024-01-10T07:17:54;13.70;;;10.90;;
10174;SDS011;18221;38.704;0.152;2024-01-10T07:20:22;13.40;;;10.40;;
10174;SDS011;18221;38.704;0.152;2024-01-10T07:22:50;15.07;;;10.87;;
10174;SDS011;18221;38.704;0.152;2024-01-10T07:25:19;12.97;;;10.60;;
10174;SDS011;18221;38.704;0.152;2024-01-10T07:27:50;13.27;;;10.10;;
10174;SDS011;18221;38.704;0.152;2024-01-10T07:30:18;13.57;;;9.20;;
10174;SDS011;18221;38.704;0.152;2024-01-10T07:32:46;14.30;;;9.40;;
10174;SDS011;18221;38.704;0.152;2024-01-10T07:35:15;10.57;;;9.30;;
10174;SDS011;18221;38.704;0.152;2024-01-10T07:37:43;16.17;;;8.53;;
10174;SDS011;18221;38.704;0.152;2024-01-10T07:40:11;14.83;;;9.03;;
10174;SDS011;18221;38.704;0.152;2024-01-10T07:42:39;11.13;;;8.77;;
10174;SDS011;18221;38.704;0.152;2024-01-10T07:45:07;16.17;;;9.27;;
10174;SDS011;18221;38.704;0.152;2024-01-10T07:47:37;11.03;;;8.27;;
10174;SDS011;18221;38.704;0.152;2024-01-10T07:50:06;10.90;;;8.57;;
10174;SDS011;18221;38.704;0.152;2024-01-10T07:52:36;13.03;;;8.30;;
10174;SDS011;18221;38.704;0.152;2024-01-10T07:55:05;9.13;;;7.50;;
10174;SDS011;18221;38.704;0.152;2024-01-10T07:57:34;12.17;;;8.13;;
10174;SDS011;18221;38.704;0.152;2024-01-10T08:00:03;10.67;;;7.33;;
10174;SDS011;18221;38.704;0.152;2024-01-10T08:02:35;10.20;;;7.23;;
10174;SDS011;18221;38.704;0.152;2024-01-10T08:05:04;8.33;;;7.47;;
10174;SDS011;18221;38.704;0.152;2024-01-10T08:07:36;7.57;;;6.73;;
10174;SDS011;18221;38.704;0.152;2024-01-10T08:10:04;9.13;;;7.20;;
10174;SDS011;18221;38.704;0.152;2024-01-10T08:12:33;10.23;;;7.17;;
10174;SDS011;18221;38.704;0.152;2024-01-10T08:15:01;11.07;;;7.23;;
10174;SDS011;18221;38.704;0.152;2024-01-10T08:17:29;10.10;;;7.50;;
10174;SDS011;18221;38.704;0.152;2024-01-10T08:19:56;11.30;;;7.30;;
10174;SDS011;18221;38.704;0.152;2024-01-10T08:22:25;9.77;;;7.13;;
10174;SDS011;18221;38.704;0.152;2024-01-10T08:24:55;8.17;;;6.90;;
10174;SDS011;18221;38.704;0.152;2024-01-10T08:27:23;9.43;;;7.27;;
10174;SDS011;18221;38.704;0.152;2024-01-10T08:29:51;7.10;;;6.40;;
10174;SDS011;18221;38.704;0.152;2024-01-10T08:32:19;9.60;;;6.07;;
10174;SDS011;18221;38.704;0.152;2024-01-10T08:34:48;7.77;;;6.03;;
10174;SDS011;18221;38.704;0.152;2024-01-10T08:37:15;7.23;;;5.77;;
10174;SDS011;18221;38.704;0.152;2024-01-10T08:39:44;7.13;;;5.60;;
10174;SDS011;18221;38.704;0.152;2024-01-10T08:42:13;8.07;;;5.60;;
10174;SDS011;18221;38.704;0.152;2024-01-10T08:44:41;10.43;;;6.50;;
10174;SDS011;18221;38.704;0.152;2024-01-10T08:47:09;7.57;;;6.17;;
10174;SDS011;18221;38.704;0.152;2024-01-10T08:49:37;6.73;;;5.97;;
10174;SDS011;18221;38.704;0.152;2024-01-10T08:52:05;6.50;;;5.80;;
10174;SDS011;18221;38.704;0.152;2024-01-10T08:54:33;6.40;;;4.77;;
10174;SDS011;18221;38.704;0.152;2024-01-10T08:57:02;6.67;;;5.00;;
10174;SDS011;18221;38.704;0.152;2024-01-10T08:59:32;8.33;;;5.60;;
10174;SDS011;18221;38.704;0.152;2024-01-10T09:02:00;6.53;;;5.10;;
10174;SDS011;18221;38.704;0.152;2024-01-10T09:04:28;6.23;;;4.40;;
10174;SDS011;18221;38.704;0.152;2024-01-10T09:06:56;5.33;;;4.27;;
10174;SDS011;18221;38.704;0.152;2024-01-10T09:09:24;4.50;;;3.80;;
10174;SDS011;18221;38.704;0.152;2024-01-10T09:11:52;5.87;;;3.40;;
10174;SDS011;18221;38.704;0.152;2024-01-10T09:14:20;5.20;;;3.13;;
10174;SDS011;18221;38.704;0.152;2024-01-10T09:16:51;4.67;;;4.00;;
10174;SDS011;18221;38.704;0.152;2024-01-10T09:19:19;5.53;;;3.93;;
10174;SDS011;18221;38.704;0.152;2024-01-10T09:21:47;8.60;;;6.37;;
10174;SDS011;18221;38.704;0.152;2024-01-10T09:24:17;8.40;;;5.93;;
10174;SDS011;18221;38.704;0.152;2024-01-10T09:26:44;8.37;;;6.47;;
10174;SDS011;18221;38.704;0.152;2024-01-10T09:29:12;10.57;;;6.57;;
10174;SDS011;18221;38.704;0.152;2024-01-10T09:31:40;7.27;;;6.40;;
10174;SDS011;18221;38.704;0.152;2024-01-10T09:34:10;7.40;;;6.30;;
10174;SDS011;18221;38.704;0.152;2024-01-10T09:36:38;8.43;;;6.37;;
10174;SDS011;18221;38.704;0.152;2024-01-10T09:39:06;7.23;;;5.27;;
10174;SDS011;18221;38.704;0.152;2024-01-10T09:41:40;4.83;;;2.90;;
10174;SDS011;18221;38.704;0.152;2024-01-10T09:44:16;3.80;;;2.60;;
10174;SDS011;18221;38.704;0.152;2024-01-10T09:46:48;3.00;;;2.80;;
10174;SDS011;18221;38.704;0.152;2024-01-10T09:49:20;4.90;;;3.47;;
10174;SDS011;18221;38.704;0.152;2024-01-10T09:51:50;4.50;;;3.10;;
10174;SDS011;18221;38.704;0.152;2024-01-10T09:54:24;3.90;;;2.60;;
10174;SDS011;18221;38.704;0.152;2024-01-10T09:56:56;3.07;;;2.20;;
10174;SDS011;18221;38.704;0.152;2024-01-10T09:59:25;6.33;;;3.60;;
10174;SDS011;18221;38.704;0.152;2024-01-10T10:01:53;4.23;;;3.20;;
10174;SDS011;18221;38.704;0.152;2024-01-10T10:04:25;7.23;;;3.97;;
10174;SDS011;18221;38.704;0.152;2024-01-10T10:06:58;4.90;;;4.03;;
10174;SDS011;18221;38.704;0.152;2024-01-10T10:09:27;5.70;;;3.57;;
10174;SDS011;18221;38.704;0.152;2024-01-10T10:11:56;4.77;;;3.90;;
10174;SDS011;18221;38.704;0.152;2024-01-10T10:14:26;5.67;;;3.33;;
10174;SDS011;18221;38.704;0.152;2024-01-10T10:16:56;4.87;;;3.20;;
10174;SDS011;18221;38.704;0.152;2024-01-10T10:19:42;4.97;;;3.57;;
10174;SDS011;18221;38.704;0.152;2024-01-10T10:22:10;4.73;;;3.63;;
10174;SDS011;18221;38.704;0.152;2024-01-10T10:24:39;5.07;;;3.80;;
10174;SDS011;18221;38.704;0.152;2024-01-10T10:27:10;8.10;;;4.17;;
10174;SDS011;18221;38.704;0.152;2024-01-10T10:29:40;6.97;;;4.23;;
10174;SDS011;18221;38.704;0.152;2024-01-10T10:32:08;12.27;;;5.80;;
10174;SDS011;18221;38.704;0.152;2024-01-10T10:34:36;5.93;;;4.63;;
10174;SDS011;18221;38.704;0.152;2024-01-10T10:37:06;6.13;;;3.80;;
10174;SDS011;18221;38.704;0.152;2024-01-10T10:39:34;6.00;;;3.80;;
10174;SDS011;18221;38.704;0.152;2024-01-10T10:42:03;5.93;;;3.67;;
10174;SDS011;18221;38.704;0.152;2024-01-10T10:44:33;5.20;;;3.77;;
10174;SDS011;18221;38.704;0.152;2024-01-10T10:47:07;5.33;;;3.00;;
10174;SDS011;18221;38.704;0.152;2024-01-10T10:49:42;4.33;;;3.17;;
10174;SDS011;18221;38.704;0.152;2024-01-10T10:52:21;3.50;;;3.00;;
10174;SDS011;18221;38.704;0.152;2024-01-10T10:54:50;4.80;;;2.87;;
10174;SDS011;18221;38.704;0.152;2024-01-10T10:57:23;3.80;;;2.93;;
10174;SDS011;18221;38.704;0.152;2024-01-10T10:59:54;4.43;;;3.40;;
10174;SDS011;18221;38.704;0.152;2024-01-10T11:02:24;4.20;;;2.87;;
10174;SDS011;18221;38.704;0.152;2024-01-10T11:04:53;4.07;;;3.10;;
10174;SDS011;18221;38.704;0.152;2024-01-10T11:07:23;5.07;;;3.83;;
10174;SDS011;18221;38.704;0.152;2024-01-10T11:09:51;4.87;;;3.87;;
10174;SDS011;18221;38.704;0.152;2024-01-10T11:12:27;6.43;;;4.40;;
10174;SDS011;18221;38.704;0.152;2024-01-10T11:15:20;7.23;;;4.60;;
10174;SDS011;18221;38.704;0.152;2024-01-10T11:18:13;6.87;;;4.50;;
10174;SDS011;18221;38.704;0.152;2024-01-10T11:21:19;7.27;;;5.10;;
10174;SDS011;18221;38.704;0.152;2024-01-10T11:24:03;7.40;;;4.47;;
10174;SDS011;18221;38.704;0.152;2024-01-10T11:26:34;7.30;;;4.57;;
10174;SDS011;18221;38.704;0.152;2024-01-10T11:29:04;7.57;;;5.13;;
10174;SDS011;18221;38.704;0.152;2024-01-10T11:31:32;4.77;;;3.07;;
10174;SDS011;18221;38.704;0.152;2024-01-10T11:34:00;6.10;;;3.03;;
10174;SDS011;18221;38.704;0.152;2024-01-10T11:36:29;4.23;;;2.77;;
10174;SDS011;18221;38.704;0.152;2024-01-10T11:38:57;2.93;;;2.47;;
10174;SDS011;18221;38.704;0.152;2024-01-10T11:41:29;2.70;;;2.30;;
10174;SDS011;18221;38.704;0.152;2024-01-10T11:46:58;3.80;;;2.10;;
10174;SDS011;18221;38.704;0.152;2024-01-10T11:49:27;3.47;;;1.97;;
10174;SDS011;18221;38.704;0.152;2024-01-10T11:51:58;2.27;;;1.70;;
10174;SDS011;18221;38.704;0.152;2024-01-10T11:57:19;2.40;;;2.20;;
10174;SDS011;18221;38.704;0.152;2024-01-10T11:59:51;2.30;;;2.10;;
10174;SDS011;18221;38.704;0.152;2024-01-10T12:02:21;3.43;;;1.83;;
10174;SDS011;18221;38.704;0.152;2024-01-10T12:04:51;3.53;;;2.17;;
10174;SDS011;18221;38.704;0.152;2024-01-10T12:07:19;2.20;;;2.00;;
10174;SDS011;18221;38.704;0.152;2024-01-10T12:09:49;2.53;;;2.00;;
10174;SDS011;18221;38.704;0.152;2024-01-10T12:12:18;4.10;;;2.37;;
10174;SDS011;18221;38.704;0.152;2024-01-10T12:14:46;3.57;;;1.90;;
10174;SDS011;18221;38.704;0.152;2024-01-10T12:17:13;2.30;;;1.80;;
10174;SDS011;18221;38.704;0.152;2024-01-10T12:19:41;2.17;;;1.90;;
10174;SDS011;18221;38.704;0.152;2024-01-10T12:22:10;1.90;;;1.70;;
10174;SDS011;18221;38.704;0.152;2024-01-10T12:24:44;2.10;;;1.70;;
10174;SDS011;18221;38.704;0.152;2024-01-10T12:27:16;2.87;;;1.60;;
10174;SDS011;18221;38.704;0.152;2024-01-10T12:29:47;1.90;;;1.73;;
10174;SDS011;18221;38.704;0.152;2024-01-10T12:32:17;1.83;;;1.67;;
10174;SDS011;18221;38.704;0.152;2024-01-10T12:34:47;2.07;;;1.60;;
10174;SDS011;18221;38.704;0.152;2024-01-10T12:37:15;2.43;;;1.57;;
10174;SDS011;18221;38.704;0.152;2024-01-10T12:39:45;1.67;;;1.57;;
10174;SDS011;18221;38.704;0.152;2024-01-10T12:42:13;1.67;;;1.57;;
10174;SDS011;18221;38.704;0.152;2024-01-10T12:44:45;2.17;;;1.67;;
10174;SDS011;18221;38.704;0.152;2024-01-10T12:47:18;2.13;;;1.80;;
10174;SDS011;18221;38.704;0.152;2024-01-10T12:49:46;1.83;;;1.53;;
10174;SDS011;18221;38.704;0.152;2024-01-10T12:52:14;4.23;;;1.60;;
10174;SDS011;18221;38.704;0.152;2024-01-10T12:54:42;1.77;;;1.60;;
10174;SDS011;18221;38.704;0.152;2024-01-10T12:57:10;1.90;;;1.50;;
10174;SDS011;18221;38.704;0.152;2024-01-10T12:59:38;1.97;;;1.33;;
10174;SDS011;18221;38.704;0.152;2024-01-10T13:02:07;3.87;;;1.70;;
10174;SDS011;18221;38.704;0.152;2024-01-10T13:04:35;2.63;;;1.60;;
10174;SDS011;18221;38.704;0.152;2024-01-10T13:07:03;1.87;;;1.50;;
10174;SDS011;18221;38.704;0.152;2024-01-10T13:09:31;3.57;;;1.47;;
10174;SDS011;18221;38.704;0.152;2024-01-10T13:11:59;1.60;;;1.50;;
10174;SDS011;18221;38.704;0.152;2024-01-10T13:14:27;1.87;;;1.50;;
10174;SDS011;18221;38.704;0.152;2024-01-10T13:16:56;1.70;;;1.43;;
10174;SDS011;18221;38.704;0.152;2024-01-10T13:19:25;1.30;;;1.20;;
10174;SDS011;18221;38.704;0.152;2024-01-10T13:21:54;2.80;;;1.40;;
10174;SDS011;18221;38.704;0.152;2024-01-10T13:24:22;3.97;;;1.20;;
10174;SDS011;18221;38.704;0.152;2024-01-10T13:26:50;2.03;;;1.20;;
10174;SDS011;18221;38.704;0.152;2024-01-10T13:29:18;1.63;;;1.30;;
10174;SDS011;18221;38.704;0.152;2024-01-10T13:31:45;1.40;;;1.30;;
10174;SDS011;18221;38.704;0.152;2024-01-10T13:34:14;1.87;;;1.77;;
10174;SDS011;18221;38.704;0.152;2024-01-10T13:36:44;3.07;;;1.67;;
10174;SDS011;18221;38.704;0.152;2024-01-10T13:39:12;2.17;;;1.40;;
10174;SDS011;18221;38.704;0.152;2024-01-10T13:41:41;1.80;;;1.43;;
10174;SDS011;18221;38.704;0.152;2024-01-10T13:44:09;3.00;;;1.30;;
10174;SDS011;18221;38.704;0.152;2024-01-10T13:46:37;1.47;;;1.37;;
10174;SDS011;18221;38.704;0.152;2024-01-10T13:49:06;1.57;;;1.30;;
10174;SDS011;18221;38.704;0.152;2024-01-10T13:51:34;1.77;;;1.30;;
10174;SDS011;18221;38.704;0.152;2024-01-10T13:54:04;1.40;;;1.30;;
10174;SDS011;18221;38.704;0.152;2024-01-10T13:56:32;1.40;;;1.30;;
10174;SDS011;18221;38.704;0.152;2024-01-10T13:59:00;1.83;;;1.57;;
10174;SDS011;18221;38.704;0.152;2024-01-10T14:01:28;1.57;;;1.33;;
10174;SDS011;18221;38.704;0.152;2024-01-10T14:03:57;1.73;;;1.30;;
10174;SDS011;18221;38.704;0.152;2024-01-10T14:06:25;1.80;;;1.40;;
10174;SDS011;18221;38.704;0.152;2024-01-10T14:08:54;1.73;;;1.50;;
10174;SDS011;18221;38.704;0.152;2024-01-10T14:11:24;1.63;;;1.30;;
10174;SDS011;18221;38.704;0.152;2024-01-10T14:13:52;2.83;;;1.87;;
10174;SDS011;18221;38.704;0.152;2024-01-10T14:16:20;1.30;;;1.17;;
10174;SDS011;18221;38.704;0.152;2024-01-10T14:18:48;2.40;;;1.60;;
10174;SDS011;18221;38.704;0.152;2024-01-10T14:21:16;2.87;;;1.60;;
10174;SDS011;18221;38.704;0.152;2024-01-10T14:23:45;2.53;;;1.60;;
10174;SDS011;18221;38.704;0.152;2024-01-10T14:26:12;3.30;;;1.43;;
10174;SDS011;18221;38.704;0.152;2024-01-10T14:28:43;2.43;;;1.70;;
10174;SDS011;18221;38.704;0.152;2024-01-10T14:31:11;1.80;;;1.70;;
10174;SDS011;18221;38.704;0.152;2024-01-10T14:33:40;1.53;;;1.40;;
10174;SDS011;18221;38.704;0.152;2024-01-10T14:36:08;1.33;;;1.23;;
10174;SDS011;18221;38.704;0.152;2024-01-10T14:38:36;4.77;;;1.77;;
10174;SDS011;18221;38.704;0.152;2024-01-10T14:41:06;2.33;;;1.50;;
10174;SDS011;18221;38.704;0.152;2024-01-10T14:43:35;2.47;;;1.47;;
10174;SDS011;18221;38.704;0.152;2024-01-10T14:46:05;2.83;;;1.57;;
10174;SDS011;18221;38.704;0.152;2024-01-10T14:48:33;2.57;;;1.50;;
10174;SDS011;18221;38.704;0.152;2024-01-10T14:51:02;2.30;;;1.70;;
10174;SDS011;18221;38.704;0.152;2024-01-10T14:53:31;2.43;;;1.73;;
10174;SDS011;18221;38.704;0.152;2024-01-10T14:56:00;3.83;;;1.80;;
10174;SDS011;18221;38.704;0.152;2024-01-10T14:58:28;2.57;;;1.60;;
10174;SDS011;18221;38.704;0.152;2024-01-10T15:00:56;1.57;;;1.43;;
10174;SDS011;18221;38.704;0.152;2024-01-10T15:03:26;2.17;;;1.60;;
10174;SDS011;18221;38.704;0.152;2024-01-10T15:05:54;2.73;;;1.90;;
10174;SDS011;18221;38.704;0.152;2024-01-10T15:08:22;2.97;;;1.73;;
10174;SDS011;18221;38.704;0.152;2024-01-10T15:10:50;2.63;;;1.90;;
10174;SDS011;18221;38.704;0.152;2024-01-10T15:13:18;2.50;;;1.93;;